Bradley, Maine
Current Conditions -  °F | °C
As of 7:53 AM on Wednesday 26 Nov 2014 (Local Time) from KBGR Reporting Station
Overcast Overcast  
Wind Chill: 33°   Ceiling: 20000
Heat Index: 38°   Visibility: 10mi
Dew Point: 26°   Wind: 7mph
Humidity: 62%   Direction: 310°NW
Pressure: 30.21"   Gusts: NA
Location:  44.92°N, 68.63°W
Report Text: KBGR 261253Z 31006KT 10SM FEW040 SCT140 OVC200 03/M03 A3021 RMK AO2 SLP230 T00331033
Loading
Personal Weather Stations






























Interactive Weather Map New forecast layout! Learn more

10-Day Weather Forecast

Advertisements
Track Severe Weather on mobile